createdAt,value
2016-01-17T00:00:13.932Z,48.3
2016-01-17T00:01:13.997Z,48.3
2016-01-17T00:02:14.046Z,48.3
2016-01-17T00:03:14.144Z,48.3
2016-01-17T00:04:14.146Z,48.21
2016-01-17T00:05:14.165Z,48.11
2016-01-17T00:06:14.230Z,48.4
2016-01-17T00:07:14.216Z,48.3
2016-01-17T00:08:14.265Z,48.21
2016-01-17T00:09:14.316Z,48.21
2016-01-17T00:10:14.349Z,48.4
2016-01-17T00:11:14.399Z,48.49
2016-01-17T00:12:14.433Z,48.11
2016-01-17T00:13:14.498Z,48.21
2016-01-17T00:14:14.517Z,48.3
2016-01-17T00:15:14.551Z,48.02
2016-01-17T00:16:14.600Z,48.11
2016-01-17T00:17:14.634Z,48.21
2016-01-17T00:18:14.699Z,48.4
2016-01-17T00:19:14.717Z,48.4
2016-01-17T00:20:14.767Z,48.11
2016-01-17T00:21:14.800Z,48.3
2016-01-17T00:22:14.850Z,48.11
2016-01-17T00:23:14.900Z,48.11
2016-01-17T00:24:14.933Z,48.3
2016-01-17T00:25:14.968Z,48.11
2016-01-17T00:26:15.050Z,48.11
2016-01-17T00:27:15.066Z,48.3
2016-01-17T00:28:15.101Z,48.21
2016-01-17T00:29:15.135Z,48.02
2016-01-17T00:30:15.185Z,48.11
2016-01-17T00:31:15.219Z,48.02
2016-01-17T00:32:15.268Z,48.4
2016-01-17T00:33:15.302Z,48.11
2016-01-17T00:34:15.352Z,48.4
2016-01-17T00:35:15.385Z,48.02
2016-01-17T00:36:15.291Z,48.21
2016-01-17T00:37:15.482Z,48.09
2016-01-17T00:38:15.532Z,48.49
2016-01-17T00:39:15.549Z,48.21
2016-01-17T00:40:15.584Z,48.4
2016-01-17T00:41:15.649Z,48.02
2016-01-17T00:42:15.683Z,48.11
2016-01-17T00:43:15.732Z,48.21
2016-01-17T00:44:15.767Z,48.21
2016-01-17T00:45:15.816Z,48.4
2016-01-17T00:46:15.866Z,48.11
2016-01-17T00:47:15.884Z,48.28
2016-01-17T00:48:15.934Z,48.11
2016-01-17T00:49:16.014Z,48.18
2016-01-17T00:50:16.033Z,48.18
2016-01-17T00:51:16.051Z,48.3
2016-01-17T00:52:16.101Z,48.11
2016-01-17T00:53:16.134Z,48.09
2016-01-17T00:54:16.200Z,48.28
2016-01-17T00:55:16.217Z,48.28
2016-01-17T00:56:16.268Z,47.99
2016-01-17T00:57:16.302Z,47.99
2016-01-17T00:58:16.367Z,48.21
2016-01-17T00:59:16.416Z,48.18
2016-01-17T01:00:16.435Z,48.09
2016-01-17T01:01:16.484Z,48.09
2016-01-17T01:02:16.503Z,48.28
2016-01-17T01:03:16.572Z,48.3
2016-01-17T01:04:16.590Z,48.09
2016-01-17T01:05:16.657Z,48.18
2016-01-17T01:06:16.690Z,48.21
2016-01-17T01:07:16.739Z,48.11
2016-01-17T01:08:16.774Z,48.11
2016-01-17T01:09:16.807Z,48.18
2016-01-17T01:10:16.857Z,48.18
2016-01-17T01:11:16.922Z,48.21
2016-01-17T01:12:16.940Z,48.49
2016-01-17T01:13:16.974Z,48.3
2016-01-17T01:14:17.040Z,48.28
2016-01-17T01:15:17.089Z,48.21
2016-01-17T01:16:17.107Z,48.28
2016-01-17T01:17:17.173Z,48.3
2016-01-17T01:18:17.207Z,48.4
2016-01-17T01:19:17.240Z,48.18
2016-01-17T01:20:17.259Z,48.57
2016-01-17T01:21:17.324Z,48.28
2016-01-17T01:22:17.342Z,48.3
2016-01-17T01:23:17.392Z,48.47
2016-01-17T01:24:17.441Z,48.28
2016-01-17T01:25:17.522Z,47.71
2016-01-17T01:26:17.509Z,48.21
2016-01-17T01:27:17.575Z,48.4
2016-01-17T01:28:17.624Z,47.71
2016-01-17T01:29:17.642Z,47.71
2016-01-17T01:30:17.754Z,47.71
2016-01-17T01:31:17.727Z,47.92
2016-01-17T01:32:17.822Z,47.82
2016-01-17T01:33:17.824Z,48.02
2016-01-17T01:34:17.859Z,47.63
2016-01-17T01:35:17.908Z,47.63
2016-01-17T01:36:18.005Z,47.25
2016-01-17T01:37:18.039Z,47.53
2016-01-17T01:38:18.026Z,47.41
2016-01-17T01:39:18.061Z,47.32
2016-01-17T01:40:18.110Z,47.32
2016-01-17T01:41:18.175Z,47.8
2016-01-17T01:42:18.193Z,47.32
2016-01-17T01:43:18.227Z,47.25
2016-01-17T01:44:18.262Z,47.34
2016-01-17T01:45:18.326Z,47.72
2016-01-17T01:46:18.361Z,47.63
2016-01-17T01:47:18.426Z,47.44
2016-01-17T01:48:18.476Z,47.89
2016-01-17T01:49:18.526Z,47.51
2016-01-17T01:50:18.543Z,47.82
2016-01-17T01:51:18.610Z,47.63
2016-01-17T01:52:18.628Z,47.72
2016-01-17T01:53:18.646Z,47.63
2016-01-17T01:54:18.696Z,47.32
2016-01-17T01:55:18.746Z,47.41
2016-01-17T01:56:18.827Z,47.63
2016-01-17T01:57:18.844Z,47.8
2016-01-17T01:58:18.879Z,47.71
2016-01-17T01:59:18.929Z,47.32
2016-01-17T02:00:18.993Z,47.44
2016-01-17T02:01:18.996Z,47.41
2016-01-17T02:02:19.030Z,47.51
2016-01-17T02:03:19.080Z,47.51
2016-01-17T02:04:19.114Z,47.41
2016-01-17T02:05:19.163Z,47.51
2016-01-17T02:06:19.229Z,47.34
2016-01-17T02:07:19.357Z,47.32
2016-01-17T02:08:19.390Z,47.22
2016-01-17T02:09:19.393Z,47.41
2016-01-17T02:10:19.364Z,47.13
2016-01-17T02:11:19.399Z,47.32
2016-01-17T02:12:19.510Z,47.32
2016-01-17T02:13:19.513Z,47.41
2016-01-17T02:14:19.562Z,47.41
2016-01-17T02:15:19.613Z,47.51
2016-01-17T02:16:19.646Z,47.32
2016-01-17T02:17:19.695Z,47.41
2016-01-17T02:18:19.730Z,47.32
2016-01-17T02:19:19.764Z,47.41
2016-01-17T02:20:19.829Z,47.32
2016-01-17T02:21:19.816Z,47.61
2016-01-17T02:22:19.881Z,47.51
2016-01-17T02:23:19.899Z,47.41
2016-01-17T02:24:19.949Z,47.51
2016-01-17T02:25:20.030Z,47.41
2016-01-17T02:26:20.017Z,47.41
2016-01-17T02:27:20.082Z,47.32
2016-01-17T02:28:20.116Z,47.22
2016-01-17T02:29:20.181Z,47.32
2016-01-17T02:30:20.309Z,47.41
2016-01-17T02:31:20.249Z,47.61
2016-01-17T02:32:20.314Z,47.51
2016-01-17T02:33:20.333Z,47.32
2016-01-17T02:34:20.382Z,47.41
2016-01-17T02:35:20.416Z,47.41
2016-01-17T02:36:20.449Z,47.41
2016-01-17T02:37:20.515Z,47.03
2016-01-17T02:38:20.565Z,47.51
2016-01-17T02:39:20.598Z,47.32
2016-01-17T02:40:20.617Z,47.41
2016-01-17T02:41:20.698Z,47.32
2016-01-17T02:42:20.685Z,47.32
2016-01-17T02:43:20.813Z,47.51
2016-01-17T02:44:20.816Z,47.51
2016-01-17T02:45:20.865Z,47.51
2016-01-17T02:46:20.852Z,47.22
2016-01-17T02:47:21.073Z,47.51
2016-01-17T02:48:20.951Z,47.32
2016-01-17T02:49:20.984Z,47.61
2016-01-17T02:50:21.034Z,47.32
2016-01-17T02:51:21.069Z,47.41
2016-01-17T02:52:21.118Z,47.41
2016-01-17T02:53:21.153Z,47.41
2016-01-17T02:54:21.186Z,47.41
2016-01-17T02:55:21.236Z,47.41
2016-01-17T02:56:21.270Z,47.61
2016-01-17T02:57:21.336Z,47.61
2016-01-17T02:58:21.369Z,47.61
2016-01-17T02:59:21.403Z,47.41
2016-01-17T03:00:21.453Z,47.22
2016-01-17T03:01:21.486Z,47.03
2016-01-17T03:02:21.536Z,47.41
2016-01-17T03:03:21.570Z,47.13
2016-01-17T03:04:21.760Z,47.13
2016-01-17T03:05:21.697Z,47.32
2016-01-17T03:06:21.700Z,47.32
2016-01-17T03:07:21.765Z,47.22
2016-01-17T03:08:21.816Z,47.41
2016-01-17T03:09:21.865Z,47.22
2016-01-17T03:10:21.883Z,47.32
2016-01-17T03:11:21.901Z,47.32
2016-01-17T03:12:21.982Z,47.22
2016-01-17T03:13:22.001Z,47.32
2016-01-17T03:14:22.049Z,47.13
2016-01-17T03:15:22.068Z,47.41
2016-01-17T03:16:22.102Z,47.22
2016-01-17T03:17:22.167Z,47.32
2016-01-17T03:18:22.201Z,47.13
2016-01-17T03:19:22.251Z,47.13
2016-01-17T03:20:22.300Z,47.13
2016-01-17T03:21:22.318Z,47.13
2016-01-17T03:22:22.353Z,47.22
2016-01-17T03:23:22.344Z,47.22
2016-01-17T03:24:22.707Z,47.32
2016-01-17T03:25:22.601Z,47.32
2016-01-17T03:26:22.713Z,47.32
2016-01-17T03:27:22.622Z,47.22
2016-01-17T03:28:22.798Z,47.32
2016-01-17T03:29:23.082Z,47.03
2016-01-17T03:30:22.772Z,47.32
2016-01-17T03:31:22.744Z,47.41
2016-01-17T03:32:22.777Z,47.32
2016-01-17T03:33:22.968Z,47.32
2016-01-17T03:34:22.860Z,47.32
2016-01-17T03:35:22.941Z,47.22
2016-01-17T03:36:23.054Z,47.13
2016-01-17T03:37:23.072Z,47.22
2016-01-17T03:38:23.043Z,47.41
2016-01-17T03:39:23.077Z,47.22
2016-01-17T03:40:23.126Z,47.41
2016-01-17T03:41:23.161Z,47.51
2016-01-17T03:42:23.197Z,47.41
2016-01-17T03:43:23.277Z,47.32
2016-01-17T03:44:23.280Z,47.32
2016-01-17T03:45:23.314Z,47.13
2016-01-17T03:46:23.363Z,47.03
2016-01-17T03:47:23.475Z,47.22
2016-01-17T03:48:23.463Z,47.51
2016-01-17T03:49:23.512Z,47.41
2016-01-17T03:50:23.530Z,47.41
2016-01-17T03:51:23.564Z,47.41
2016-01-17T03:52:23.614Z,47.32
2016-01-17T03:53:23.788Z,47.32
2016-01-17T03:54:23.791Z,46.74
2016-01-17T03:55:23.779Z,47.22
2016-01-17T03:56:23.782Z,47.51
2016-01-17T03:57:23.847Z,47.51
2016-01-17T03:58:23.865Z,47.51
2016-01-17T03:59:23.899Z,47.41
2016-01-17T04:00:23.980Z,47.41
2016-01-17T04:01:23.998Z,47.51
2016-01-17T04:02:24.078Z,47.41
2016-01-17T04:03:24.113Z,47.51
2016-01-17T04:04:24.100Z,46.65
2016-01-17T04:05:24.149Z,47.41
2016-01-17T04:06:24.199Z,47.41
2016-01-17T04:07:24.248Z,47.41
2016-01-17T04:08:24.282Z,47.41
2016-01-17T04:09:24.317Z,47.41
2016-01-17T04:10:24.366Z,47.51
2016-01-17T04:11:24.400Z,47.51
2016-01-17T04:12:24.465Z,46.94
2016-01-17T04:13:24.592Z,47.03
2016-01-17T04:14:24.533Z,47.03
2016-01-17T04:15:24.583Z,46.55
2016-01-17T04:16:24.664Z,46.94
2016-01-17T04:17:24.651Z,47.13
2016-01-17T04:18:24.934Z,46.74
2016-01-17T04:19:24.797Z,46.55
2016-01-17T04:20:24.768Z,46.74
2016-01-17T04:21:24.817Z,46.74
2016-01-17T04:22:24.867Z,46.65
2016-01-17T04:23:24.963Z,47.51
2016-01-17T04:24:24.982Z,47.13
2016-01-17T04:25:25.000Z,47.13
2016-01-17T04:26:25.034Z,47.03
2016-01-17T04:27:25.083Z,47.51
2016-01-17T04:28:25.164Z,47.13
2016-01-17T04:29:25.230Z,47.61
2016-01-17T04:30:25.199Z,47.51
2016-01-17T04:31:25.232Z,46.84
2016-01-17T04:32:25.282Z,47.41
2016-01-17T04:33:25.316Z,46.74
2016-01-17T04:34:25.366Z,47.51
2016-01-17T04:35:24.666Z,47.13
2016-01-17T04:36:25.433Z,47.41
2016-01-17T04:37:25.514Z,46.65
2016-01-17T04:38:25.517Z,47.61
2016-01-17T04:39:25.583Z,46.84
2016-01-17T04:40:25.616Z,47.61
2016-01-17T04:41:25.651Z,47.03
2016-01-17T04:42:25.699Z,47.03
2016-01-17T04:43:25.718Z,47.13
2016-01-17T04:44:25.767Z,47.13
2016-01-17T04:45:25.802Z,46.74
2016-01-17T04:46:25.867Z,46.74
2016-01-17T04:47:25.932Z,47.03
2016-01-17T04:48:25.934Z,46.74
2016-01-17T04:49:26.015Z,47.13
2016-01-17T04:50:26.018Z,46.74
2016-01-17T04:51:26.067Z,47.22
2016-01-17T04:52:26.118Z,47.03
2016-01-17T04:53:26.151Z,46.84
2016-01-17T04:54:26.185Z,46.55
2016-01-17T04:55:26.391Z,46.94
2016-01-17T04:56:26.270Z,46.65
2016-01-17T04:57:26.303Z,46.74
2016-01-17T04:58:26.353Z,46.94
2016-01-17T04:59:26.403Z,47.03
2016-01-17T05:00:26.484Z,47.22
2016-01-17T05:01:26.487Z,46.65
2016-01-17T05:02:26.521Z,46.94
2016-01-17T05:03:26.570Z,47.03
2016-01-17T05:04:26.620Z,47.03
2016-01-17T05:05:26.638Z,46.74
2016-01-17T05:06:26.720Z,47.13
2016-01-17T05:07:26.723Z,47.22
2016-01-17T05:08:26.771Z,47.13
2016-01-17T05:09:26.821Z,47.32
2016-01-17T05:10:26.855Z,47.22
2016-01-17T05:11:26.889Z,46.84
2016-01-17T05:12:26.922Z,46.55
2016-01-17T05:13:26.988Z,46.65
2016-01-17T05:14:27.006Z,46.45
2016-01-17T05:15:27.072Z,47.22
2016-01-17T05:16:27.106Z,46.94
2016-01-17T05:17:27.155Z,46.55
2016-01-17T05:18:27.174Z,47.03
2016-01-17T05:19:27.223Z,47.13
2016-01-17T05:20:27.272Z,47.03
2016-01-17T05:21:27.306Z,46.65
2016-01-17T05:22:27.356Z,46.84
2016-01-17T05:23:27.406Z,47.13
2016-01-17T05:24:27.450Z,46.45
2016-01-17T05:25:27.455Z,46.65
2016-01-17T05:26:27.319Z,47.03
2016-01-17T05:27:27.527Z,46.65
2016-01-17T05:28:27.532Z,47.13
2016-01-17T05:29:27.588Z,47.03
2016-01-17T05:30:27.617Z,47.41
2016-01-17T05:31:27.646Z,46.84
2016-01-17T05:32:27.675Z,47.13
2016-01-17T05:33:27.721Z,47.03
2016-01-17T05:34:27.767Z,46.45
2016-01-17T05:35:27.798Z,46.84
2016-01-17T05:36:27.831Z,47.13
2016-01-17T05:37:27.877Z,47.32
2016-01-17T05:38:27.925Z,47.41
2016-01-17T05:39:27.959Z,46.84
2016-01-17T05:40:28.006Z,47.03
2016-01-17T05:41:28.072Z,46.55
2016-01-17T05:42:28.104Z,47.41
2016-01-17T05:43:28.107Z,47.41
2016-01-17T05:44:28.156Z,47.22
2016-01-17T05:45:28.206Z,46.55
2016-01-17T05:46:28.240Z,46.55
2016-01-17T05:47:28.305Z,46.84
2016-01-17T05:48:28.354Z,46.94
2016-01-17T05:49:28.373Z,46.94
2016-01-17T05:50:28.406Z,46.84
2016-01-17T05:51:28.455Z,47.03
2016-01-17T05:52:28.506Z,46.94
2016-01-17T05:53:28.555Z,47.32
2016-01-17T05:54:28.588Z,46.84
2016-01-17T05:55:28.623Z,47.13
2016-01-17T05:56:28.657Z,47.03
2016-01-17T05:57:28.707Z,47.41
2016-01-17T05:58:28.757Z,47.03
2016-01-17T05:59:28.790Z,47.03
2016-01-17T06:00:28.840Z,46.94
2016-01-17T06:01:28.936Z,46.65
2016-01-17T06:02:28.908Z,46.84
2016-01-17T06:03:28.957Z,46.84
2016-01-17T06:04:28.975Z,46.26
2016-01-17T06:05:29.041Z,46.26
2016-01-17T06:06:29.120Z,46.38
2016-01-17T06:07:29.233Z,46.17
2016-01-17T06:08:29.001Z,45.81
2016-01-17T06:09:29.207Z,45.52
2016-01-17T06:10:29.242Z,45.42
2016-01-17T06:11:29.291Z,45.61
2016-01-17T06:12:29.340Z,44.84
2016-01-17T06:13:29.390Z,44.94
2016-01-17T06:14:29.409Z,44.87
2016-01-17T06:15:29.458Z,44.77
2016-01-17T06:16:29.492Z,44.58
2016-01-17T06:17:29.558Z,44.48
2016-01-17T06:18:29.606Z,44.48
2016-01-17T06:19:29.922Z,44.38
2016-01-17T06:20:29.691Z,44.58
2016-01-17T06:21:29.740Z,44.48
2016-01-17T06:22:29.758Z,44.29
2016-01-17T06:23:29.824Z,44.1
2016-01-17T06:24:29.841Z,44.2
2016-01-17T06:25:29.892Z,44.2
2016-01-17T06:26:29.925Z,44.29
2016-01-17T06:27:30.052Z,44.1
2016-01-17T06:28:30.021Z,44.1
2016-01-17T06:29:30.071Z,44.22
2016-01-17T06:30:30.230Z,43.93
2016-01-17T06:31:30.155Z,44.22
2016-01-17T06:32:30.220Z,43.93
2016-01-17T06:33:30.285Z,43.74
2016-01-17T06:34:30.303Z,44.1
2016-01-17T06:35:30.322Z,44.1
2016-01-17T06:36:30.387Z,44.02
2016-01-17T06:37:30.390Z,44.22
2016-01-17T06:38:30.440Z,44.02
2016-01-17T06:39:30.317Z,43.84
2016-01-17T06:40:30.554Z,44.12
2016-01-17T06:41:30.573Z,44.12
2016-01-17T06:42:30.654Z,43.93
2016-01-17T06:43:30.671Z,44.02
2016-01-17T06:44:30.767Z,44.12
2016-01-17T06:45:30.755Z,44.02
2016-01-17T06:46:30.804Z,43.93
2016-01-17T06:47:30.823Z,44.12
2016-01-17T06:48:30.935Z,43.84
2016-01-17T06:49:30.922Z,43.45
2016-01-17T06:50:30.972Z,43.93
2016-01-17T06:51:31.005Z,44.12
2016-01-17T06:52:31.056Z,44.12
2016-01-17T06:53:31.089Z,43.74
2016-01-17T06:54:31.263Z,44.12
2016-01-17T06:55:31.180Z,44.02
2016-01-17T06:56:31.230Z,43.93
2016-01-17T06:57:31.264Z,43.84
2016-01-17T06:58:31.313Z,44.12
2016-01-17T06:59:31.347Z,44.12
2016-01-17T07:00:31.427Z,44.12
2016-01-17T07:01:31.463Z,43.84
2016-01-17T07:02:31.481Z,44.22
2016-01-17T07:03:31.578Z,44.12
2016-01-17T07:04:31.690Z,44.12
2016-01-17T07:05:31.880Z,44.12
2016-01-17T07:06:31.649Z,43.74
2016-01-17T07:07:31.682Z,44.02
2016-01-17T07:08:31.748Z,43.91
2016-01-17T07:09:31.783Z,44.1
2016-01-17T07:10:31.816Z,44.1
2016-01-17T07:11:31.850Z,43.91
2016-01-17T07:12:31.915Z,43.81
2016-01-17T07:13:31.964Z,44.38
2016-01-17T07:14:31.999Z,44.38
2016-01-17T07:15:32.049Z,44.29
2016-01-17T07:16:32.066Z,44
2016-01-17T07:17:32.116Z,44.2
2016-01-17T07:18:32.181Z,44.29
2016-01-17T07:19:32.199Z,44.48
2016-01-17T07:20:32.265Z,44.68
2016-01-17T07:21:32.299Z,44.48
2016-01-17T07:22:32.443Z,44.48
2016-01-17T07:23:32.383Z,44.29
2016-01-17T07:24:32.416Z,44.58
2016-01-17T07:25:32.482Z,44.68
2016-01-17T07:26:32.500Z,45.06
2016-01-17T07:27:32.549Z,44.48
2016-01-17T07:28:32.599Z,45.06
2016-01-17T07:29:32.617Z,45.06
2016-01-17T07:30:32.683Z,44.87
2016-01-17T07:31:32.748Z,44.96
2016-01-17T07:32:32.751Z,44.77
2016-01-17T07:33:32.815Z,44.87
2016-01-17T07:34:32.865Z,44.68
2016-01-17T07:35:32.899Z,44.96
2016-01-17T07:36:32.933Z,44.87
2016-01-17T07:37:32.983Z,44.68
2016-01-17T07:38:33.001Z,44.68
2016-01-17T07:39:33.067Z,44.77
2016-01-17T07:40:33.163Z,44.87
2016-01-17T07:41:33.134Z,44.96
2016-01-17T07:42:33.215Z,45.06
2016-01-17T07:43:33.218Z,45.06
2016-01-17T07:44:33.284Z,45.25
2016-01-17T07:45:33.301Z,45.35
2016-01-17T07:46:33.366Z,45.45
2016-01-17T07:47:33.385Z,45.14
2016-01-17T07:48:33.434Z,45.25
2016-01-17T07:49:33.672Z,45.25
2016-01-17T07:50:33.533Z,44.87
2016-01-17T07:51:33.553Z,44.77
2016-01-17T07:52:33.602Z,44.58
2016-01-17T07:53:33.636Z,44.58
2016-01-17T07:54:33.686Z,44.87
2016-01-17T07:55:33.735Z,44.68
2016-01-17T07:56:33.769Z,44.77
2016-01-17T07:57:33.819Z,44.87
2016-01-17T07:58:33.883Z,45.06
2016-01-17T07:59:33.918Z,45.06
2016-01-17T08:00:33.966Z,44.87
2016-01-17T08:01:33.986Z,44.96
2016-01-17T08:02:34.019Z,44.87
2016-01-17T08:03:34.116Z,44.87
2016-01-17T08:04:34.119Z,45.06
2016-01-17T08:05:34.184Z,45.06
2016-01-17T08:06:34.218Z,44.87
2016-01-17T08:07:34.235Z,44.87
2016-01-17T08:08:34.270Z,44.58
2016-01-17T08:09:34.320Z,45.06
2016-01-17T08:10:34.368Z,44.87
2016-01-17T08:11:34.403Z,44.96
2016-01-17T08:12:34.546Z,44.7
2016-01-17T08:13:34.515Z,44.51
2016-01-17T08:14:34.643Z,44.79
2016-01-17T08:15:34.567Z,44.51
2016-01-17T08:16:34.632Z,45.08
2016-01-17T08:17:34.667Z,44.7
2016-01-17T08:18:34.700Z,45.08
2016-01-17T08:19:34.750Z,45.28
2016-01-17T08:20:34.784Z,45.06
2016-01-17T08:21:34.834Z,45.15
2016-01-17T08:22:34.852Z,45.45
2016-01-17T08:23:34.917Z,45.25
2016-01-17T08:24:34.966Z,45.73
2016-01-17T08:25:35.000Z,45.54
2016-01-17T08:26:35.019Z,45.73
2016-01-17T08:27:35.069Z,45.83
2016-01-17T08:28:35.133Z,45.54
2016-01-17T08:29:35.152Z,45.83
2016-01-17T08:30:35.202Z,45.35
2016-01-17T08:31:35.266Z,45.54
2016-01-17T08:32:35.285Z,45.45
2016-01-17T08:33:35.335Z,45.54
2016-01-17T08:34:35.369Z,45.54
2016-01-17T08:35:35.418Z,45.28
2016-01-17T08:36:35.452Z,45.45
2016-01-17T08:37:35.501Z,45.06
2016-01-17T08:38:35.552Z,45.18
2016-01-17T08:39:35.585Z,45.54
2016-01-17T08:40:35.635Z,45.15
2016-01-17T08:41:35.668Z,45.06
2016-01-17T08:42:35.718Z,45.56
2016-01-17T08:43:35.768Z,45.47
2016-01-17T08:44:35.817Z,45.85
2016-01-17T08:45:35.835Z,46.04
2016-01-17T08:46:35.885Z,45.56
2016-01-17T08:47:35.935Z,45.76
2016-01-17T08:48:35.984Z,46.21
2016-01-17T08:49:36.003Z,46.31
2016-01-17T08:50:36.053Z,46.5
2016-01-17T08:51:36.086Z,46.31
2016-01-17T08:52:36.136Z,46.59
2016-01-17T08:53:36.185Z,46.12
2016-01-17T08:54:36.234Z,46.41
2016-01-17T08:55:36.253Z,45.06
2016-01-17T08:56:36.334Z,44.1
2016-01-17T08:57:36.352Z,44.58
2016-01-17T08:58:36.387Z,45.23
2016-01-17T08:59:36.436Z,45.45
2016-01-17T09:00:36.486Z,45.54
2016-01-17T09:01:36.519Z,45.54
2016-01-17T09:02:36.569Z,45.25
2016-01-17T09:03:36.603Z,45.06
2016-01-17T09:04:36.652Z,45.25
2016-01-17T09:05:36.686Z,45.08
2016-01-17T09:06:36.736Z,45.18
2016-01-17T09:07:36.769Z,45.08
2016-01-17T09:08:36.819Z,44.89
2016-01-17T09:09:36.854Z,44.99
2016-01-17T09:10:36.902Z,45.08
2016-01-17T09:11:36.938Z,45.95
2016-01-17T09:12:36.970Z,45.56
2016-01-17T09:13:37.035Z,45.56
2016-01-17T09:14:37.070Z,44.43
2016-01-17T09:15:37.151Z,44.53
2016-01-17T09:16:37.153Z,44.91
2016-01-17T09:17:37.203Z,45.08
2016-01-17T09:18:37.221Z,44.89
2016-01-17T09:19:37.286Z,44.79
2016-01-17T09:20:37.320Z,45.56
2016-01-17T09:21:37.370Z,45.56
2016-01-17T09:22:37.420Z,45.01
2016-01-17T09:23:37.453Z,44.89
2016-01-17T09:24:37.503Z,44.99
2016-01-17T09:25:37.537Z,44.79
2016-01-17T09:26:37.602Z,45.08
2016-01-17T09:27:37.620Z,45.18
2016-01-17T09:28:37.670Z,45.18
2016-01-17T09:29:37.719Z,45.47
2016-01-17T09:30:37.753Z,45.08
2016-01-17T09:31:37.788Z,44.99
2016-01-17T09:32:37.836Z,45.28
2016-01-17T09:33:37.871Z,45.18
2016-01-17T09:34:37.921Z,45.18
2016-01-17T09:35:37.969Z,45.37
2016-01-17T09:36:38.004Z,45.45
2016-01-17T09:37:38.054Z,45.47
2016-01-17T09:38:38.087Z,45.56
2016-01-17T09:39:38.138Z,45.37
2016-01-17T09:40:38.187Z,45.56
2016-01-17T09:41:38.220Z,45.95
2016-01-17T09:42:38.270Z,46.02
2016-01-17T09:43:38.320Z,45.64
2016-01-17T09:44:38.368Z,46.02
2016-01-17T09:45:38.387Z,45.64
2016-01-17T09:46:38.421Z,46.31
2016-01-17T09:47:38.471Z,46.12
2016-01-17T09:48:38.521Z,45.73
2016-01-17T09:49:38.570Z,45.73
2016-01-17T09:50:38.604Z,45.83
2016-01-17T09:51:38.920Z,45.95
2016-01-17T09:52:38.687Z,45.92
2016-01-17T09:53:38.722Z,46.12
2016-01-17T09:54:38.942Z,46.21
2016-01-17T09:55:38.820Z,46.31
2016-01-17T09:56:38.855Z,45.73
2016-01-17T09:57:38.890Z,45.64
2016-01-17T09:58:38.939Z,45.56
2016-01-17T09:59:38.974Z,46.04
2016-01-17T10:00:39.039Z,46.33
2016-01-17T10:01:39.057Z,46.14
2016-01-17T10:02:39.106Z,45.66
2016-01-17T10:03:39.156Z,45.85
2016-01-17T10:04:39.190Z,45.95
2016-01-17T10:05:39.240Z,46.04
2016-01-17T10:06:39.290Z,45.66
2016-01-17T10:07:39.323Z,45.47
2016-01-17T10:08:39.373Z,45.76
2016-01-17T10:09:39.392Z,45.56
2016-01-17T10:10:39.457Z,45.66
2016-01-17T10:11:39.507Z,46.23
2016-01-17T10:12:39.541Z,46.23
2016-01-17T10:13:39.574Z,46.23
2016-01-17T10:14:39.623Z,46.14
2016-01-17T10:15:39.689Z,46.23
2016-01-17T10:16:39.707Z,46.53
2016-01-17T10:17:39.742Z,46.5
2016-01-17T10:18:39.791Z,46.53
2016-01-17T10:19:39.840Z,46.53
2016-01-17T10:20:39.890Z,46.43
2016-01-17T10:21:39.909Z,46.5
2016-01-17T10:22:39.989Z,46.41
2016-01-17T10:23:40.008Z,46.41
2016-01-17T10:24:40.058Z,46.59
2016-01-17T10:25:40.107Z,46.59
2016-01-17T10:26:40.125Z,46.41
2016-01-17T10:27:40.175Z,46.5
2016-01-17T10:28:40.225Z,46.5
2016-01-17T10:29:40.259Z,46.59
2016-01-17T10:30:40.307Z,46.69
2016-01-17T10:31:40.358Z,46.59
2016-01-17T10:32:40.392Z,46.59
2016-01-17T10:33:40.425Z,46.41
2016-01-17T10:34:40.460Z,46.59
2016-01-17T10:35:40.509Z,46.21
2016-01-17T10:36:40.558Z,46.59
2016-01-17T10:37:40.593Z,46.59
2016-01-17T10:38:40.626Z,46.69
2016-01-17T10:39:40.691Z,46.5
2016-01-17T10:40:40.726Z,46.02
2016-01-17T10:41:40.760Z,46.5
2016-01-17T10:43:17.574Z,46.31
2016-01-17T10:43:40.859Z,46.31
2016-01-17T10:44:40.939Z,46.12
2016-01-17T10:45:40.973Z,46.12
2016-01-17T10:46:40.992Z,45.92
2016-01-17T10:47:41.026Z,45.45
2016-01-17T10:48:41.076Z,45.64
2016-01-17T10:49:41.093Z,45.64
2016-01-17T10:50:41.206Z,45.92
2016-01-17T10:51:41.177Z,45.54
2016-01-17T10:52:41.242Z,45.64
2016-01-17T10:53:41.448Z,46.02
2016-01-17T10:54:41.325Z,45.73
2016-01-17T10:55:41.359Z,45.54
2016-01-17T10:56:41.409Z,46.02
2016-01-17T10:57:41.442Z,45.54
2016-01-17T10:58:41.555Z,46.12
2016-01-17T10:59:41.542Z,45.73
2016-01-17T11:00:41.575Z,45.64
2016-01-17T11:01:41.610Z,45.54
2016-01-17T11:02:41.660Z,45.54
2016-01-17T11:03:41.694Z,45.35
2016-01-17T11:04:41.743Z,45.64
2016-01-17T11:05:41.808Z,45.25
2016-01-17T11:06:41.827Z,45.06
2016-01-17T11:07:41.876Z,45.15
2016-01-17T11:08:41.926Z,44.87
2016-01-17T11:09:41.960Z,45.15
2016-01-17T11:10:42.010Z,45.15
2016-01-17T11:11:42.043Z,45.06
2016-01-17T11:12:42.093Z,45.15
2016-01-17T11:13:42.126Z,45.15
2016-01-17T11:14:42.176Z,45.06
2016-01-17T11:15:42.195Z,45.06
2016-01-17T11:16:42.243Z,45.06
2016-01-17T11:17:42.278Z,45.15
2016-01-17T11:18:42.328Z,45.15
2016-01-17T11:19:42.362Z,44.87
2016-01-17T11:20:42.411Z,44.87
2016-01-17T11:21:42.461Z,45.15
2016-01-17T11:22:42.510Z,44.87
2016-01-17T11:23:42.544Z,45.06
2016-01-17T11:24:42.594Z,45.06
2016-01-17T11:25:42.628Z,44.96
2016-01-17T11:26:42.662Z,45.25
2016-01-17T11:27:42.977Z,44.87
2016-01-17T11:28:42.761Z,45.18
2016-01-17T11:29:43.092Z,45.08
2016-01-17T11:30:42.891Z,45.18
2016-01-17T11:31:42.863Z,45.15
2016-01-17T11:32:42.928Z,44.89
2016-01-17T11:33:42.961Z,44.99
2016-01-17T11:34:43.011Z,44.99
2016-01-17T11:35:43.044Z,45.08
2016-01-17T11:36:43.094Z,45.35
2016-01-17T11:37:43.129Z,45.73
2016-01-17T11:38:43.194Z,45.45
2016-01-17T11:39:43.227Z,45.45
2016-01-17T11:40:43.262Z,45.54
2016-01-17T11:41:43.327Z,45.73
2016-01-17T11:42:43.360Z,45.54
2016-01-17T11:43:43.395Z,45.45
2016-01-17T11:44:43.429Z,46.02
2016-01-17T11:45:43.479Z,45.45
2016-01-17T11:46:43.513Z,46.02
2016-01-17T11:47:43.562Z,46.02
2016-01-17T11:48:43.612Z,45.73
2016-01-17T11:49:43.629Z,45.56
2016-01-17T11:50:43.680Z,45.66
2016-01-17T11:51:43.729Z,45.66
2016-01-17T11:52:43.779Z,46.02
2016-01-17T11:53:43.813Z,45.92
2016-01-17T11:54:43.846Z,46.02
2016-01-17T11:55:43.895Z,45.85
2016-01-17T11:56:43.946Z,46.04
2016-01-17T11:57:43.979Z,46.04
2016-01-17T11:58:44.028Z,46.14
2016-01-17T11:59:44.063Z,45.85
2016-01-17T12:00:44.112Z,45.66
2016-01-17T12:01:44.147Z,45.37
2016-01-17T12:02:44.196Z,46.12
2016-01-17T12:03:44.230Z,45.92
2016-01-17T12:04:44.280Z,46.14
2016-01-17T12:05:44.313Z,46.23
2016-01-17T12:06:44.363Z,46.21
2016-01-17T12:07:44.397Z,46.21
2016-01-17T12:08:44.431Z,45.76
2016-01-17T12:09:44.480Z,46.33
2016-01-17T12:10:44.530Z,46.23
2016-01-17T12:11:44.580Z,45.76
2016-01-17T12:12:44.630Z,45.95
2016-01-17T12:13:44.663Z,45.66
2016-01-17T12:14:44.712Z,45.56
2016-01-17T12:15:44.763Z,45.37
2016-01-17T12:16:44.780Z,45.76
2016-01-17T12:17:44.845Z,46.04
2016-01-17T12:18:44.896Z,46.14
2016-01-17T12:19:44.945Z,46.23
2016-01-17T12:20:44.947Z,46.04
2016-01-17T12:21:44.998Z,46.43
2016-01-17T12:22:45.046Z,46.14
2016-01-17T12:23:45.081Z,46.33
2016-01-17T12:24:45.130Z,46.14
2016-01-17T12:25:45.179Z,45.66
2016-01-17T12:26:45.229Z,45.56
2016-01-17T12:27:45.247Z,45.85
2016-01-17T12:28:45.297Z,45.76
2016-01-17T12:29:45.347Z,45.47
2016-01-17T12:30:45.380Z,46.04
2016-01-17T12:31:45.430Z,46.04
2016-01-17T12:32:45.464Z,46.04
2016-01-17T12:33:45.530Z,46.23
2016-01-17T12:34:45.564Z,46.43
2016-01-17T12:35:45.597Z,46.14
2016-01-17T12:36:45.647Z,46.14
2016-01-17T12:37:45.666Z,46.53
2016-01-17T12:38:45.731Z,46.23
2016-01-17T12:39:45.763Z,46.23
2016-01-17T12:40:45.814Z,46.62
2016-01-17T12:41:45.847Z,45.76
2016-01-17T12:42:45.897Z,46.14
2016-01-17T12:43:45.947Z,46.04
2016-01-17T12:44:45.997Z,46.14
2016-01-17T12:45:46.015Z,46.14
2016-01-17T12:46:46.049Z,46.23
2016-01-17T12:47:46.113Z,46.53
2016-01-17T12:48:46.148Z,46.23
2016-01-17T12:49:46.213Z,46.33
2016-01-17T12:50:46.309Z,46.23
2016-01-17T12:51:46.296Z,46.14
2016-01-17T12:52:46.315Z,46.53
2016-01-17T12:53:46.396Z,46.53
2016-01-17T12:54:46.414Z,46.62